• Join FlightAware (Why Join?)
  • Login
  • US Flag 
02:36AM EDT


 

Airport Tracker/Info


-or-


 

Live Flight TrackerFlight Track Log ✈ SWA378 ✈ 16-May-2013 ✈ KLAX - KATL

Flight Track Log - Related Links

Times and Time Zones

All times are in EDT time to prevent confusion due to time zone crossing. See the SWA378 flight status page for this flight to view local times or setup timezone preferences in your user account.

Time Position Orientation Groundspeed Altitude Reporting Facility
EDT Latitude Longitude Course Direction KTS MPH feet Rate Location/Type
01:27PM 33.8617 -118.5128 191° South 255 293 4,200  Level Los Angeles Center
01:28PM 33.7633 -118.5183 183° South 283 326 7,700 3,060 Climbing Los Angeles Center
01:29PM 33.6961 -118.4772 153° Southeast 308 354 10,600 2,520 Climbing Los Angeles Center
01:30PM 33.6561 -118.3761 115° Southeast 344 396 13,000 2,520 Climbing Los Angeles Center
01:31PM 33.6333 -118.2271 90° East  Level FlightAware Approximate
01:31PM 33.6450 -118.2369 95° East 363 418 15,900  Level Los Angeles Center
01:32PM 33.6439 -118.1058 91° East 395 455 17,800 2,040 Climbing Los Angeles Center
01:33PM 33.6439 -117.9681 90° East 412 474 20,200 2,220 Climbing Los Angeles Center
01:34PM 33.6433 -117.8264 90° East 424 488 22,400 1,980 Climbing Los Angeles Center
01:35PM 33.6428 -117.6794 90° East 436 502 24,400 1,800 Climbing Los Angeles Center
01:36PM 33.6419 -117.5294 90° East 447 514 26,200 1,500 Climbing Los Angeles Center
01:37PM 33.6403 -117.3461 91° East 457 526 27,600 1,260 Climbing Los Angeles Center
01:38PM 33.6392 -117.1875 90° East 473 544 28,900 1,440 Climbing Los Angeles Center
01:39PM 33.6383 -117.0267 90° East 485 558 30,600 1,740 Climbing Los Angeles Center
01:40PM 33.6372 -116.8683 90° East 478 550 32,600 1,560 Climbing Los Angeles Center
01:41PM 33.6522 -116.7100 83° East 471 542 33,900 1,140 Climbing Los Angeles Center
01:42PM 33.6833 -116.5261 78° East 468 539 35,000 480 Climbing Los Angeles Center
01:43PM 33.7033 -116.4036 79° East 468 539 35,000  Level Los Angeles Center
01:44PM 33.7344 -116.2189 79° East 469 540 35,000  Level Los Angeles Center
01:45PM 33.7592 -116.0633 79° East 471 542 35,000  Level Los Angeles Center
01:46PM 33.7847 -115.9117 78° East 466 536 35,000  Level Los Angeles Center
01:47PM 33.8097 -115.7603 79° East 463 533 35,000  Level Los Angeles Center
01:48PM 33.8392 -115.5753 79° East 468 539 35,000  Level Los Angeles Center
01:49PM 33.8625 -115.4197 80° East 471 542 35,000  Level Los Angeles Center
01:50PM 33.8869 -115.2650 79° East 471 542 35,000 300 Level Los Angeles Center
01:51PM 33.9125 -115.1100 79° East 472 543 35,700 960 Climbing Los Angeles Center
01:52PM 33.9356 -114.9569 80° East 466 536 37,000 600 Climbing Los Angeles Center
01:53PM 33.9606 -114.8047 79° East 466 536 37,000  Level Los Angeles Center
01:55PM 33.9889 -114.6228 79° East 462 532 37,000  Level Los Angeles Center
01:56PM 34.0114 -114.4689 80° East 465 535 37,000  Level Los Angeles Center
01:57PM 34.0350 -114.3156 79° East 466 536 37,000  Level Los Angeles Center
01:58PM 34.0625 -114.1378 79° East 468 539 37,000  Level Albuquerque Center
01:59PM 34.0850 -113.9831 80° East 469 540 37,000  Level Albuquerque Center
02:00PM 34.1067 -113.8283 80° East 470 541 37,000  Level Albuquerque Center
02:01PM 34.1333 -113.6422 80° East 470 541 37,000  Level Albuquerque Center
02:02PM 34.1561 -113.4856 80° East 473 544 37,000  Level Albuquerque Center
02:03PM 34.1789 -113.3300 80° East 471 542 37,000  Level Albuquerque Center
02:04PM 34.2008 -113.1753 80° East 469 540 37,000  Level Albuquerque Center
02:05PM 34.2214 -113.0206 81° East 468 539 37,000  Level Albuquerque Center
02:06PM 34.2431 -112.8658 80° East 468 539 37,000  Level Albuquerque Center
02:07PM 34.2678 -112.6806 81° East 465 535 37,000  Level Albuquerque Center
02:08PM 34.2900 -112.5247 80° East 470 541 37,000  Level Albuquerque Center
02:09PM 34.3097 -112.3697 81° East 467 537 37,000  Level Albuquerque Center
02:10PM 34.3303 -112.2144 81° East 466 536 37,000  Level Albuquerque Center
02:11PM 34.3511 -112.0589 81° East 466 536 37,000  Level Albuquerque Center
02:12PM 34.3711 -111.9022 81° East 467 537 37,000  Level Albuquerque Center
02:13PM 34.3911 -111.7453 81° East 468 539 37,000  Level Albuquerque Center
02:14PM 34.4156 -111.5556 81° East 471 542 37,000  Level Albuquerque Center
02:15PM 34.4358 -111.3964 81° East 474 545 37,000  Level Albuquerque Center
02:16PM 34.4550 -111.2375 82° East 476 548 37,000  Level Albuquerque Center
02:17PM 34.4753 -111.0792 81° East 476 548 37,000  Level Albuquerque Center
02:18PM 34.4933 -110.9208 82° East 475 547 37,000  Level Albuquerque Center
02:19PM 34.5128 -110.7617 82° East 476 548 37,000  Level Albuquerque Center
02:21PM 34.5325 -110.6036 81° East 475 547 37,000  Level Albuquerque Center
02:22PM 34.5533 -110.4261 82° East 472 543 37,000  Level Albuquerque Center
02:23PM 34.5742 -110.2503 82° East 472 543 37,000  Level Albuquerque Center
02:24PM 34.5917 -110.0989 82° East 473 544 37,000  Level Albuquerque Center
02:25PM 34.6081 -109.9461 83° East 477 549 37,000  Level Albuquerque Center
02:26PM 34.6269 -109.7683 83° East 477 549 37,000  Level Albuquerque Center
02:27PM 34.6450 -109.6169 82° East 475 547 37,000  Level Albuquerque Center
02:28PM 34.6644 -109.4389 82° East 477 549 37,000  Level Albuquerque Center
02:29PM 34.6800 -109.2872 83° East 475 547 37,000  Level Albuquerque Center
02:30PM 34.6994 -109.1117 82° East 473 544 37,000  Level Albuquerque Center
02:31PM 34.7150 -108.9589 83° East 476 548 37,000  Level Albuquerque Center
02:32PM 34.7350 -108.7811 82° East 476 548 37,000  Level Albuquerque Center
02:33PM 34.7489 -108.6278 84° East 478 550 37,000  Level Albuquerque Center
02:34PM 34.7661 -108.4561 83° East 477 549 37,000  Level Albuquerque Center
02:35PM 34.7833 -108.2964 82° East 478 550 37,000  Level Albuquerque Center
02:36PM 34.7981 -108.1358 84° East 479 551 37,000  Level Albuquerque Center
02:37PM 34.8133 -107.9756 83° East 478 550 37,000  Level Albuquerque Center
02:38PM 34.8289 -107.8169 83° East 474 545 37,000  Level Albuquerque Center
02:39PM 34.8444 -107.6581 83° East 473 544 37,000  Level Albuquerque Center
02:40PM 34.8581 -107.4994 84° East 473 544 37,000  Level Albuquerque Center
02:41PM 34.8753 -107.3114 84° East 468 539 37,000  Level Albuquerque Center
02:42PM 34.8906 -107.1569 83° East 470 541 37,000  Level Albuquerque Center
02:43PM 34.9056 -106.9814 84° East 467 537 37,000  Level Albuquerque Center
02:44PM 34.9169 -106.8300 85° East 468 539 37,000  Level Albuquerque Center
02:45PM 34.9319 -106.6558 84° East 465 535 37,000  Level Albuquerque Center
02:46PM 34.9447 -106.4969 84° East 483 556 37,000  Level Albuquerque Center
02:47PM 34.9569 -106.3364 84° East 482 555 37,000  Level Albuquerque Center
02:48PM 34.9605 -106.3086 84° East  Level FlightAware Approximate
02:48PM 34.9700 -106.1758 84° East 480 552 37,000  Level Albuquerque Center
02:49PM 34.9833 -106.0144 84° East 480 552 37,000  Level Albuquerque Center
02:50PM 34.9978 -105.8481 84° East 480 552 37,000  Level Albuquerque Center
02:51PM 35.0106 -105.6561 85° East 483 556 37,000  Level Albuquerque Center
02:52PM 35.0236 -105.4906 84° East 486 559 37,000  Level Albuquerque Center
02:53PM 35.0367 -105.3250 84° East 487 560 37,000  Level Albuquerque Center
02:55PM 35.0486 -105.1608 85° East 484 557 37,000  Level Albuquerque Center
02:56PM 35.0608 -104.9981 85° East 480 552 37,000  Level Albuquerque Center
02:57PM 35.0722 -104.8361 85° East 478 550 37,000  Level Albuquerque Center
02:58PM 35.0831 -104.6744 85° East 477 549 37,000  Level Albuquerque Center
02:59PM 35.0961 -104.5164 84° East 470 541 37,000  Level Albuquerque Center
03:00PM 35.1064 -104.3567 85° East 472 543 37,000  Level Albuquerque Center
03:01PM 35.1183 -104.1656 86° East 471 542 37,000  Level Albuquerque Center
03:02PM 35.1283 -104.0072 86° East 471 542 37,000  Level Albuquerque Center
03:03PM 35.1369 -103.8564 86° East 469 540 37,000  Level Albuquerque Center
03:04PM 35.1469 -103.6964 86° East 470 541 37,000  Level Albuquerque Center
03:05PM 35.1581 -103.5100 86° East 469 540 37,000  Level Albuquerque Center
03:06PM 35.1681 -103.3497 86° East 469 540 37,000  Level Albuquerque Center
03:07PM 35.1764 -103.1897 86° East 469 540 37,000  Level Albuquerque Center
03:08PM 35.1856 -103.0303 86° East 468 539 37,000  Level Albuquerque Center
03:09PM 35.1931 -102.8664 87° East 467 537 37,000  Level Albuquerque Center
03:10PM 35.2014 -102.7075 86° East 469 540 37,000  Level Albuquerque Center
03:11PM 35.2092 -102.5489 87° East 469 540 37,000  Level Albuquerque Center
03:12PM 35.2172 -102.3906 86° East 468 539 37,000  Level Albuquerque Center
03:13PM 35.2239 -102.2308 87° East 471 542 37,000  Level Albuquerque Center
03:14PM 35.2336 -102.0397 86° East 471 542 37,000  Level Albuquerque Center
03:15PM 35.2425 -101.8797 86° East 472 543 37,000  Level Albuquerque Center
03:16PM 35.2508 -101.7194 86° East 470 541 37,000  Level Albuquerque Center
03:17PM 35.2581 -101.5572 87° East 470 541 37,000  Level Albuquerque Center
03:18PM 35.2642 -101.3981 87° East 469 540 37,000  Level Albuquerque Center
03:19PM 35.2706 -101.2286 87° East 470 541 37,000  Level Albuquerque Center
03:20PM 35.2767 -101.0700 87° East 469 540 37,000  Level Albuquerque Center
03:21PM 35.2833 -100.9125 87° East 467 537 37,000  Level Albuquerque Center
03:22PM 35.2886 -100.7544 88° East 466 536 37,000  Level Albuquerque Center
03:23PM 35.2947 -100.5733 88° East 464 534 37,000  Level Albuquerque Center
03:24PM 35.2997 -100.4153 88° East 464 534 37,000  Level Albuquerque Center
03:25PM 35.3033 -100.2578 88° East 464 534 37,000  Level Albuquerque Center
03:26PM 35.3092 -100.1003 87° East 464 534 37,000  Level Albuquerque Center
03:28PM 35.3133 -99.9453 88° East 460 529 37,000  Level Albuquerque Center
03:29PM 35.3178 -99.7897 88° East 458 527 37,000  Level Albuquerque Center
03:30PM 35.3236 -99.6047 88° East 456 525 37,000  Level Albuquerque Center
03:31PM 35.3278 -99.4522 88° East 452 520 37,000  Level Albuquerque Center
03:32PM 35.3294 -99.2939 89° East 456 525 37,000  Level Fort Worth Center
03:33PM 35.3317 -99.1389 89° East 456 525 37,000  Level Fort Worth Center
03:34PM 35.3358 -98.9861 88° East 456 525 37,000  Level Fort Worth Center
03:35PM 35.3397 -98.8311 88° East 456 525 37,000 360 Level Fort Worth Center
03:36PM 35.3414 -98.6758 89° East 456 525 37,800 780 Climbing Fort Worth Center
03:37PM 35.3469 -98.5206 87° East 456 525 38,600 600 Climbing Fort Worth Center
03:38PM 35.3483 -98.3503 89° East 456 525 39,000 180 Climbing Fort Worth Center
03:39PM 35.3517 -98.1900 88° East 461 531 39,000  Level Fort Worth Center
03:40PM 35.3547 -98.0294 89° East 461 531 39,000  Level Fort Worth Center
03:41PM 35.3553 -97.8742 90° East 461 531 39,000  Level Fort Worth Center
03:42PM 35.3558 -97.7189 90° East 456 525 39,000  Level Fort Worth Center
03:43PM 35.3581 -97.5664 89° East 456 525 39,000  Level Fort Worth Center
03:44PM 35.3644 -97.4161 87° East 464 534 39,000  Level Fort Worth Center
03:45PM 35.3706 -97.2583 87° East 470 541 39,000  Level Fort Worth Center
03:46PM 35.3661 -97.1006 92° East 465 535 39,000  Level Fort Worth Center
03:47PM 35.3658 -96.9453 90° East 459 528 39,000  Level Fort Worth Center
03:48PM 35.3631 -96.7900 91° East 459 528 39,000  Level Fort Worth Center
03:49PM 35.3600 -96.6347 91° East 459 528 39,000  Level Fort Worth Center
03:50PM 35.3547 -96.4794 92° East 459 528 39,000  Level Fort Worth Center
03:51PM 35.3514 -96.3242 91° East 459 528 39,000  Level Fort Worth Center
03:52PM 35.3481 -96.1689 91° East 459 528 39,000  Level Fort Worth Center
03:53PM 35.3400 -96.0114 94° East 459 528 39,000  Level Fort Worth Center
03:54PM 35.3381 -95.8433 91° East 459 528 39,000  Level Fort Worth Center
03:55PM 35.3339 -95.6858 92° East 454 522 39,000  Level Fort Worth Center
03:56PM 35.3242 -95.4111 92° East 453 521 39,000  Level Memphis Center
03:57PM 35.3183 -95.2478 92° East 464 534 39,000  Level Memphis Center
03:58PM 35.3119 -95.0847 93° East 469 540 39,000  Level Memphis Center
03:59PM 35.3033 -94.9239 94° East 469 540 39,000  Level Memphis Center
04:00PM 35.2967 -94.7606 93° East 475 547 39,000  Level Memphis Center
04:01PM 35.2894 -94.6103 93° East 486 559 39,000  Level Memphis Center
04:02PM 35.2867 -94.4497 91° East 480 552 39,000  Level Memphis Center
04:03PM 35.2814 -94.2894 92° East 475 547 39,000  Level Memphis Center
04:04PM 35.2736 -94.1339 93° East 470 541 39,000  Level Memphis Center
04:05PM 35.2658 -93.9733 93° East 470 541 39,000  Level Memphis Center
04:06PM 35.2558 -93.8128 94° East 470 541 39,000  Level Memphis Center
04:07PM 35.2497 -93.6522 93° East 470 541 39,000  Level Memphis Center
04:08PM 35.2417 -93.4739 93° East 475 547 39,000  Level Memphis Center
04:09PM 35.2331 -93.3161 94° East 475 547 39,000  Level Memphis Center
04:10PM 35.2264 -93.1531 93° East 475 547 39,000  Level Memphis Center
04:11PM 35.2175 -92.9903 94° East 475 547 39,000  Level Memphis Center
04:12PM 35.2103 -92.8300 93° East 480 552 39,000  Level Memphis Center
04:13PM 35.1969 -92.6592 95° East 486 559 39,000  Level Memphis Center
04:14PM 35.1872 -92.5014 94° East 480 552 39,000  Level Memphis Center
04:15PM 35.1794 -92.3436 93° East 475 547 39,000  Level Memphis Center
04:16PM 35.1672 -92.1833 95° East 475 547 39,000  Level Memphis Center
04:17PM 35.1589 -92.0258 94° East 475 547 39,000  Level Memphis Center
04:18PM 35.1486 -91.8606 94° East 475 547 39,000  Level Memphis Center
04:19PM 35.1400 -91.7028 94° East 475 547 39,000  Level Memphis Center
04:20PM 35.1311 -91.5378 94° East 480 552 39,000  Level Memphis Center
04:21PM 35.1181 -91.3800 96° East 480 552 39,000  Level Memphis Center
04:22PM 35.1108 -91.2228 93° East 475 547 39,000  Level Memphis Center
04:23PM 35.0972 -91.0653 96° East 475 547 39,000  Level Memphis Center
04:24PM 35.0856 -90.9028 95° East 475 547 39,000  Level Memphis Center
04:25PM 35.0736 -90.7428 95° East 475 547 39,000  Level Memphis Center
04:26PM 35.0636 -90.5828 94° East 475 547 39,000  Level Memphis Center
04:27PM 35.0511 -90.4231 95° East 475 547 39,000  Level Memphis Center
04:28PM 35.0408 -90.2758 95° East 475 547 39,000  Level Memphis Center
04:29PM 35.0281 -90.1136 95° East 480 552 39,000  Level Memphis Center
04:30PM 35.0150 -89.9514 96° East 480 552 39,000  Level Memphis Center
04:31PM 34.9914 -89.7717 99° East 480 552 39,000  Level Memphis Center
04:32PM 34.9633 -89.6019 101° East 499 574 39,000  Level Memphis Center
04:33PM 34.9372 -89.4428 101° East 486 559 39,000  Level Memphis Center
04:34PM 34.9131 -89.2858 101° East 481 554 39,000  Level Memphis Center
04:35PM 34.8886 -89.1292 101° East 469 540 39,000  Level Memphis Center
04:36PM 34.8661 -88.9853 101° East 469 540 39,000  Level Memphis Center
04:37PM 34.8436 -88.8286 100° East 469 540 39,000  Level Memphis Center
04:38PM 34.8186 -88.6697 101° East 469 540 39,000 -180 Level Memphis Center
04:39PM 34.7933 -88.5086 101° East 476 548 38,700 -660 Descending Memphis Center
04:40PM 34.7681 -88.3600 102° East 471 542 37,700 -960 Descending Memphis Center
04:41PM 34.7444 -88.1986 100° East 471 542 36,800 -1,020 Descending Memphis Center
04:42PM 34.7139 -88.0175 102° East 483 556 35,700 -1,020 Descending Memphis Center
04:43PM 34.6900 -87.8567 100° East 483 556 34,800 -900 Descending Memphis Center
04:45PM 34.6414 -87.5583 101° East 498 573 33,000 -600 Descending Atlanta Center
04:46PM 34.6147 -87.3956 101° East 493 567 33,000  Level Atlanta Center
04:47PM 34.5797 -87.2203 104° East 488 562 33,000  Level Atlanta Center
04:48PM 34.5483 -87.0600 103° East 488 562 33,000 -60 Level Atlanta Center
04:49PM 34.5186 -86.9003 103° East 488 562 32,900 -600 Descending Atlanta Center
04:50PM 34.4867 -86.7403 104° East 488 562 31,900 -1,080 Descending Atlanta Center
04:51PM 34.4567 -86.5806 103° East 488 562 30,800 -1,080 Descending Atlanta Center
04:52PM 34.4264 -86.4261 103° East 488 562 29,800 -1,020 Descending Atlanta Center
04:53PM 34.3961 -86.2717 103° East 477 549 28,800 -1,080 Descending Atlanta Center
04:54PM 34.3672 -86.1225 103° East 466 536 27,700 -1,080 Descending Atlanta Center
04:55PM 34.3364 -85.9783 104° East 452 520 26,700 -1,020 Descending Atlanta Center
04:56PM 34.3092 -85.8369 103° East 441 507 25,700 -1,020 Descending Atlanta Center
04:57PM 34.2839 -85.7156 104° East 428 493 24,700 -1,320 Descending Atlanta Center
04:58PM 34.2583 -85.5794 103° East 417 480 23,100 -1,800 Descending Atlanta Center
04:59PM 34.2308 -85.4458 104° East 412 474 21,100 -2,100 Descending Atlanta Center
05:00PM 34.2031 -85.3097 104° East 412 474 19,000 -2,100 Descending Atlanta Center
05:01PM 34.1731 -85.1686 104° East 406 467 17,000 -2,160 Descending Atlanta Center
05:02PM 34.1156 -85.0575 122° Southeast 397 457 14,700 -1,500 Descending Atlanta Center
05:03PM 34.0411 -84.9639 134° Southeast 384 442 14,000 -1,320 Descending Atlanta Center
05:04PM 33.9667 -84.8678 133° Southeast 384 442 12,100 -1,020 Descending Atlanta Center
05:05PM 33.8964 -84.7797 134° Southeast 379 436 12,000 -60 Descending Atlanta Center
05:06PM 33.8258 -84.6914 134° Southeast 379 436 12,000  Level Atlanta Center
05:07PM 33.7700 -84.6161 132° Southeast 333 383 12,000  Level Atlanta Center
05:08PM 33.7500 -84.6000 146° Southeast 267 307 12,000 -960 Level Atlanta TRACON
05:09PM 33.7333 -84.5333 107° East 274 315 10,900 -1,260 Descending Atlanta TRACON
05:10PM 33.7333 -84.4500 90° East 266 306 9,700 -1,500 Descending Atlanta TRACON
05:11PM 33.7333 -84.3500 90° East 260 299 7,900 -1,920 Descending Atlanta TRACON
05:12PM 33.7333 -84.2833 90° East 240 276 5,900 -1,980 Descending Atlanta TRACON
05:13PM 33.6833 -84.2500 151° Southeast 223 257 4,000 -1,680 Descending Atlanta TRACON
05:14PM 33.6500 -84.3167 239° Southwest 203 234 2,600 -1,200 Descending Atlanta TRACON
05:15PM 33.6500 -84.3667 270° West 155 178 1,700 -900 Descending Atlanta TRACON
05:17PM 33.6333 -84.4167 257° West  Level FlightAware Approximate
05:24PM 33.6367 -84.4279 257° West  Level Estimated